createdAt,value
2018-11-12T00:01:51.334Z,67.20
2018-11-12T00:04:22.139Z,67.50
2018-11-12T00:06:52.526Z,67.20
2018-11-12T00:09:23.125Z,66.70
2018-11-12T00:11:55.270Z,66.60
2018-11-12T00:14:25.807Z,67.10
2018-11-12T00:16:56.319Z,65.80
2018-11-12T00:19:26.710Z,65.80
2018-11-12T00:21:57.031Z,65.70
2018-11-12T00:24:27.369Z,66.10
2018-11-12T00:26:57.842Z,66.60
2018-11-12T00:29:28.131Z,67.00
2018-11-12T00:31:58.515Z,67.30
2018-11-12T00:34:28.886Z,67.30
2018-11-12T00:36:59.211Z,67.10
2018-11-12T00:39:29.495Z,67.10
2018-11-12T00:41:59.824Z,66.70
2018-11-12T00:44:30.076Z,65.80
2018-11-12T00:47:00.347Z,65.40
2018-11-12T00:49:30.674Z,65.40
2018-11-12T00:52:00.974Z,65.40
2018-11-12T00:54:31.291Z,65.50
2018-11-12T00:57:01.894Z,65.90
2018-11-12T00:59:32.193Z,66.20
2018-11-12T01:02:02.521Z,66.70
2018-11-12T01:04:32.848Z,66.50
2018-11-12T01:07:03.842Z,66.70
2018-11-12T01:09:34.188Z,66.70
2018-11-12T01:12:04.619Z,66.70
2018-11-12T01:14:35.326Z,66.40
2018-11-12T01:17:06.030Z,66.40
2018-11-12T01:19:36.460Z,66.30
2018-11-12T01:22:06.961Z,66.10
2018-11-12T01:24:37.359Z,66.20
2018-11-12T01:27:07.751Z,66.20
2018-11-12T01:29:38.079Z,65.40
2018-11-12T01:32:08.361Z,64.90
2018-11-12T01:34:38.983Z,64.70
2018-11-12T01:37:09.284Z,64.20
2018-11-12T01:39:39.840Z,64.00
2018-11-12T01:42:10.209Z,64.30
2018-11-12T01:44:40.651Z,64.20
2018-11-12T01:47:10.959Z,64.00
2018-11-12T01:49:41.322Z,64.10
2018-11-12T01:52:11.651Z,64.50
2018-11-12T01:54:41.983Z,64.70
2018-11-12T01:57:12.363Z,65.00
2018-11-12T01:59:42.726Z,65.30
2018-11-12T02:02:13.110Z,65.40
2018-11-12T02:04:43.491Z,65.10
2018-11-12T02:07:13.830Z,65.20
2018-11-12T02:09:44.193Z,64.30
2018-11-12T02:12:14.479Z,65.00
2018-11-12T02:14:44.992Z,65.30
2018-11-12T02:17:15.205Z,65.40
2018-11-12T02:19:45.962Z,65.40
2018-11-12T02:22:16.648Z,65.20
2018-11-12T02:24:47.578Z,65.50
2018-11-12T02:27:17.946Z,66.20
2018-11-12T02:29:48.453Z,65.40
2018-11-12T02:32:18.827Z,65.70
2018-11-12T02:34:49.314Z,65.50
2018-11-12T02:37:19.828Z,65.40
2018-11-12T02:39:51.381Z,66.10
2018-11-12T02:42:23.646Z,65.30
2018-11-12T02:44:54.107Z,65.40
2018-11-12T02:47:25.799Z,65.30
2018-11-12T02:49:56.981Z,65.30
2018-11-12T02:52:27.960Z,65.10
2018-11-12T02:54:58.430Z,65.10
2018-11-12T02:57:28.867Z,64.90
2018-11-12T02:59:59.460Z,65.00
2018-11-12T03:02:30.131Z,65.10
2018-11-12T03:05:00.870Z,65.20
2018-11-12T03:07:31.198Z,65.20
2018-11-12T03:10:01.540Z,65.20
2018-11-12T03:12:31.840Z,65.20
2018-11-12T03:15:04.027Z,65.20
2018-11-12T03:17:34.991Z,65.30
2018-11-12T03:20:07.140Z,65.20
2018-11-12T03:22:38.399Z,65.20
2018-11-12T03:25:11.245Z,65.10
2018-11-12T03:27:42.315Z,64.90
2018-11-12T03:30:15.220Z,64.80
2018-11-12T03:32:46.263Z,64.80
2018-11-12T03:35:17.015Z,64.90
2018-11-12T03:37:48.306Z,65.30
2018-11-12T03:40:22.505Z,65.40
2018-11-12T03:42:53.451Z,65.90
2018-11-12T03:45:25.191Z,66.40
2018-11-12T03:47:56.079Z,66.60
2018-11-12T03:50:26.596Z,66.40
2018-11-12T03:56:46.845Z,67.80
2018-11-12T03:59:33.994Z,68.70
2018-11-12T04:02:21.022Z,68.70
2018-11-12T04:10:51.919Z,68.20
2018-11-12T04:13:22.269Z,67.80
2018-11-12T04:15:53.216Z,67.50
2018-11-12T04:18:23.954Z,67.50
2018-11-12T04:20:54.351Z,67.00
2018-11-12T04:23:25.270Z,66.60
2018-11-12T04:25:56.141Z,66.10
2018-11-12T04:28:26.538Z,64.90
2018-11-12T04:30:57.219Z,65.10
2018-11-12T04:33:27.590Z,65.20
2018-11-12T04:35:59.084Z,64.50
2018-11-12T04:38:29.615Z,64.40
2018-11-12T04:41:00.460Z,64.50
2018-11-12T04:43:30.803Z,64.60
2018-11-12T04:46:01.345Z,64.10
2018-11-12T04:48:31.786Z,64.20
2018-11-12T04:51:02.138Z,64.20
2018-11-12T04:53:32.563Z,64.30
2018-11-12T04:56:03.356Z,64.30
2018-11-12T04:58:33.900Z,64.40
2018-11-12T05:01:04.716Z,64.70
2018-11-12T05:03:35.004Z,64.90
2018-11-12T05:06:06.948Z,65.60
2018-11-12T05:08:37.349Z,64.70
2018-11-12T05:11:07.998Z,64.70
2018-11-12T05:13:38.389Z,64.80
2018-11-12T05:16:08.771Z,64.60
2018-11-12T05:18:39.198Z,64.50
2018-11-12T05:21:09.806Z,64.10
2018-11-12T05:23:40.198Z,64.00
2018-11-12T05:26:10.695Z,64.00
2018-11-12T05:28:41.126Z,64.10
2018-11-12T05:31:11.466Z,64.40
2018-11-12T05:33:42.889Z,64.50
2018-11-12T05:36:13.382Z,64.30
2018-11-12T05:38:43.747Z,64.20
2018-11-12T05:41:14.645Z,64.40
2018-11-12T05:43:44.990Z,64.40
2018-11-12T05:46:15.489Z,64.50
2018-11-12T05:48:46.227Z,64.50
2018-11-12T05:51:17.095Z,64.30
2018-11-12T05:53:47.707Z,64.30
2018-11-12T05:56:18.542Z,64.50
2018-11-12T05:58:49.470Z,64.60
2018-11-12T06:01:20.619Z,64.90
2018-11-12T06:03:51.430Z,65.00
2018-11-12T06:06:22.410Z,65.10
2018-11-12T06:08:53.014Z,64.80
2018-11-12T06:11:23.502Z,64.40
2018-11-12T06:13:54.334Z,64.50
2018-11-12T06:16:24.862Z,64.60
2018-11-12T06:18:55.525Z,64.60
2018-11-12T06:21:28.252Z,64.70
2018-11-12T06:23:58.955Z,64.80
2018-11-12T06:26:38.766Z,64.70
2018-11-12T06:29:10.936Z,64.80
2018-11-12T06:31:48.139Z,65.20
2018-11-12T06:34:18.487Z,65.40
2018-11-12T06:36:50.296Z,66.30
2018-11-12T06:39:22.991Z,66.60
2018-11-12T06:41:53.752Z,65.90
2018-11-12T06:44:24.103Z,65.60
2018-11-12T06:46:54.648Z,65.80
2018-11-12T06:49:25.034Z,65.80
2018-11-12T06:51:55.474Z,65.70
2018-11-12T06:54:25.894Z,65.60
2018-11-12T06:56:58.737Z,65.60
2018-11-12T06:59:29.239Z,64.50
2018-11-12T07:02:00.407Z,64.90
2018-11-12T07:04:30.802Z,64.90
2018-11-12T07:07:01.274Z,64.50
2018-11-12T07:09:31.578Z,64.70
2018-11-12T07:12:02.090Z,64.50
2018-11-12T07:14:32.439Z,64.90
2018-11-12T07:17:03.016Z,65.50
2018-11-12T07:19:33.446Z,65.80
2018-11-12T07:22:04.011Z,65.90
2018-11-12T07:24:34.454Z,66.00
2018-11-12T07:27:04.907Z,66.10
2018-11-12T07:29:36.446Z,66.50
2018-11-12T07:32:06.962Z,66.60
2018-11-12T07:34:37.349Z,67.10
2018-11-12T07:37:08.552Z,67.00
2018-11-12T07:39:39.418Z,67.30
2018-11-12T07:42:10.183Z,67.80
2018-11-12T07:44:41.060Z,67.30
2018-11-12T07:47:16.537Z,66.50
2018-11-12T07:52:32.222Z,66.00
2018-11-12T07:55:04.139Z,66.00
2018-11-12T07:57:34.567Z,65.90
2018-11-12T08:00:09.275Z,65.90
2018-11-12T08:02:44.851Z,65.00
2018-11-12T08:05:18.464Z,65.20
2018-11-12T08:07:49.154Z,64.90
2018-11-12T08:10:20.643Z,64.30
2018-11-12T08:12:52.442Z,63.90
2018-11-12T08:22:25.219Z,64.30
2018-11-12T08:24:56.189Z,67.40
2018-11-12T08:27:26.880Z,68.40
2018-11-12T08:30:18.294Z,68.60
2018-11-12T08:32:54.593Z,68.60
2018-11-12T08:35:27.317Z,68.40
2018-11-12T08:37:58.285Z,68.60
2018-11-12T08:40:29.781Z,69.00
2018-11-12T08:43:00.362Z,69.00
2018-11-12T08:45:30.924Z,69.60
2018-11-12T08:48:01.351Z,69.40
2018-11-12T08:50:32.108Z,70.00
2018-11-12T08:53:02.987Z,68.10
2018-11-12T08:55:33.581Z,65.20
2018-11-12T08:58:04.927Z,62.10
2018-11-12T09:00:35.471Z,59.10
2018-11-12T09:03:05.882Z,56.00
2018-11-12T09:05:36.260Z,51.60
2018-11-12T09:08:07.220Z,47.20
2018-11-12T09:10:37.627Z,43.90
2018-11-12T09:13:08.066Z,40.20
2018-11-12T09:15:38.582Z,38.10
2018-11-12T09:18:09.057Z,36.50
2018-11-12T09:20:40.094Z,35.00
2018-11-12T09:23:10.536Z,33.70
2018-11-12T09:25:40.984Z,32.60
2018-11-12T09:28:11.724Z,31.80
2018-11-12T09:30:43.774Z,30.50
2018-11-12T09:33:13.190Z,29.60
2018-11-12T09:35:43.926Z,28.80
2018-11-12T09:38:14.671Z,28.20
2018-11-12T09:40:45.048Z,27.30
2018-11-12T09:43:15.591Z,26.50
2018-11-12T09:45:48.776Z,26.90
2018-11-12T09:48:19.192Z,26.30
2018-11-12T09:50:49.897Z,26.40
2018-11-12T09:53:20.368Z,25.50
2018-11-12T09:55:51.495Z,25.10
2018-11-12T09:58:22.426Z,23.90
2018-11-12T10:00:53.746Z,23.90
2018-11-12T10:03:27.760Z,22.90
2018-11-12T10:06:00.936Z,23.20
2018-11-12T10:08:35.337Z,23.00
2018-11-12T10:11:06.977Z,23.20
2018-11-12T10:13:36.949Z,23.70
2018-11-12T10:16:09.019Z,23.90
2018-11-12T10:18:36.648Z,24.90
2018-11-12T10:21:07.270Z,27.00
2018-11-12T10:23:37.638Z,29.90
2018-11-12T10:26:08.035Z,28.40
2018-11-12T10:28:38.436Z,30.50
2018-11-12T10:31:09.016Z,33.80
2018-11-12T10:33:39.350Z,37.60
2018-11-12T10:36:09.895Z,40.30
2018-11-12T10:38:40.577Z,42.50
2018-11-12T10:41:11.093Z,43.90
2018-11-12T10:43:41.750Z,45.10
2018-11-12T10:46:12.147Z,47.30
2018-11-12T10:48:42.822Z,49.60
2018-11-12T10:51:13.348Z,51.40
2018-11-12T10:53:50.043Z,51.30
2018-11-12T10:56:14.665Z,47.90
2018-11-12T10:58:45.891Z,40.50
2018-11-12T11:03:24.844Z,36.10
2018-11-12T11:05:56.302Z,35.20
2018-11-12T11:08:26.681Z,39.40
2018-11-12T11:10:57.251Z,39.20
2018-11-12T11:13:27.959Z,39.00
2018-11-12T11:15:59.313Z,35.00
2018-11-12T11:18:29.859Z,34.00
2018-11-12T11:21:00.356Z,36.20
2018-11-12T11:23:30.754Z,38.80
2018-11-12T11:26:01.252Z,40.50
2018-11-12T11:28:31.939Z,43.30
2018-11-12T11:31:02.612Z,44.50
2018-11-12T11:33:33.063Z,45.40
2018-11-12T11:36:03.967Z,45.90
2018-11-12T11:38:34.332Z,41.40
2018-11-12T11:41:06.603Z,35.70
2018-11-12T11:43:37.815Z,32.10
2018-11-12T11:46:08.308Z,30.60
2018-11-12T11:48:38.635Z,33.20
2018-11-12T11:51:09.452Z,36.60
2018-11-12T11:53:40.704Z,38.70
2018-11-12T11:56:11.258Z,41.00
2018-11-12T11:58:43.137Z,44.10
2018-11-12T12:01:14.966Z,46.20
2018-11-12T12:03:47.317Z,44.40
2018-11-12T12:06:18.487Z,37.70
2018-11-12T12:08:49.142Z,35.20
2018-11-12T12:11:20.082Z,31.40
2018-11-12T12:13:51.226Z,28.90
2018-11-12T12:16:21.983Z,26.40
2018-11-12T12:18:52.437Z,26.00
2018-11-12T12:21:22.768Z,23.70
2018-11-12T12:23:53.455Z,21.20
2018-11-12T12:26:24.034Z,22.30
2018-11-12T12:28:54.654Z,21.90
2018-11-12T12:31:25.043Z,24.10
2018-11-12T12:33:56.195Z,23.90
2018-11-12T12:36:26.884Z,27.60
2018-11-12T12:38:57.792Z,32.30
2018-11-12T12:41:31.596Z,34.60
2018-11-12T12:44:03.584Z,36.70
2018-11-12T12:46:36.088Z,38.50
2018-11-12T12:49:08.493Z,39.40
2018-11-12T12:51:42.656Z,41.90
2018-11-12T12:54:14.858Z,44.60
2018-11-12T12:56:45.911Z,46.60
2018-11-12T12:59:17.722Z,48.40
2018-11-12T13:01:58.793Z,49.20
2018-11-12T13:04:38.799Z,50.00
2018-11-12T13:07:10.235Z,49.30
2018-11-12T13:09:40.910Z,46.60
2018-11-12T13:12:12.599Z,44.90
2018-11-12T13:14:46.949Z,41.80
2018-11-12T13:17:24.710Z,40.20
2018-11-12T13:19:58.898Z,41.80
2018-11-12T13:22:31.803Z,42.70
2018-11-12T13:25:04.399Z,43.70
2018-11-12T13:27:41.106Z,45.50
2018-11-12T13:30:15.234Z,46.60
2018-11-12T13:32:51.331Z,47.10
2018-11-12T13:35:26.084Z,47.50
2018-11-12T13:37:58.142Z,44.80
2018-11-12T13:40:31.655Z,44.40
2018-11-12T13:43:03.168Z,44.60
2018-11-12T13:45:35.718Z,43.20
2018-11-12T13:48:15.186Z,39.80
2018-11-12T13:50:47.309Z,37.10
2018-11-12T13:53:18.894Z,37.70
2018-11-12T13:55:53.218Z,37.40
2018-11-12T13:58:28.256Z,38.40
2018-11-12T14:01:02.558Z,39.50
2018-11-12T14:03:38.212Z,40.80
2018-11-12T14:06:14.570Z,42.30
2018-11-12T14:08:50.947Z,42.30
2018-11-12T14:11:27.137Z,43.10
2018-11-12T14:14:03.133Z,43.50
2018-11-12T14:16:35.424Z,44.20
2018-11-12T14:19:08.517Z,43.10
2018-11-12T14:21:42.052Z,41.80
2018-11-12T14:24:12.386Z,42.40
2018-11-12T14:26:48.156Z,42.90
2018-11-12T14:29:19.446Z,43.60
2018-11-12T14:31:52.328Z,44.20
2018-11-12T14:34:22.836Z,44.50
2018-11-12T14:36:53.397Z,45.00
2018-11-12T14:39:25.922Z,46.10
2018-11-12T14:42:01.161Z,47.00
2018-11-12T14:44:36.580Z,47.60
2018-11-12T14:47:10.662Z,47.60
2018-11-12T14:49:41.955Z,47.50
2018-11-12T14:52:14.699Z,48.30
2018-11-12T14:54:47.005Z,49.50
2018-11-12T14:57:22.415Z,50.50
2018-11-12T14:59:58.765Z,51.40
2018-11-12T15:02:36.283Z,52.10
2018-11-12T15:05:16.085Z,52.60
2018-11-12T15:07:52.178Z,53.30
2018-11-12T15:10:25.439Z,54.10
2018-11-12T15:12:59.784Z,54.40
2018-11-12T15:15:32.963Z,55.10
2018-11-12T15:18:07.628Z,55.30
2018-11-12T15:20:39.162Z,55.40
2018-11-12T15:23:12.641Z,55.90
2018-11-12T15:25:45.038Z,55.90
2018-11-12T15:28:31.567Z,56.00
2018-11-12T15:31:18.208Z,56.00
2018-11-12T15:33:56.825Z,56.30
2018-11-12T15:36:35.498Z,56.60
2018-11-12T15:39:13.932Z,57.50
2018-11-12T15:42:02.639Z,58.60
2018-11-12T15:44:50.363Z,59.30
2018-11-12T15:47:27.025Z,59.70
2018-11-12T15:50:13.961Z,59.70
2018-11-12T15:53:02.266Z,59.70
2018-11-12T15:55:40.772Z,60.00
2018-11-12T15:58:20.289Z,60.70
2018-11-12T16:01:01.476Z,61.00
2018-11-12T16:03:40.571Z,60.90
2018-11-12T16:06:14.328Z,60.70
2018-11-12T16:08:51.376Z,60.50
2018-11-12T16:11:45.102Z,60.70
2018-11-12T16:14:19.426Z,60.90
2018-11-12T16:16:59.168Z,61.00
2018-11-12T16:19:39.483Z,60.90
2018-11-12T16:22:15.655Z,60.70
2018-11-12T16:25:26.906Z,60.70
2018-11-12T16:30:45.550Z,61.20
2018-11-12T16:33:40.179Z,62.10
2018-11-12T16:36:21.286Z,62.90
2018-11-12T16:39:09.953Z,63.60
2018-11-12T16:42:00.577Z,64.70
2018-11-12T16:47:53.128Z,65.10
2018-11-12T16:50:44.109Z,65.30
2018-11-12T16:53:29.134Z,65.40
2018-11-12T16:56:26.877Z,65.50
2018-11-12T16:59:04.401Z,65.70
2018-11-12T17:01:36.560Z,65.80
2018-11-12T17:04:07.369Z,65.60
2018-11-12T17:06:39.198Z,65.40
2018-11-12T17:09:13.500Z,65.00
2018-11-12T17:11:44.649Z,64.90
2018-11-12T17:14:15.259Z,64.80
2018-11-12T17:16:46.399Z,64.90
2018-11-12T17:19:17.006Z,65.10
2018-11-12T17:21:47.956Z,65.00
2018-11-12T17:24:19.050Z,64.90
2018-11-12T17:26:51.927Z,64.50
2018-11-12T17:29:25.062Z,64.00
2018-11-12T17:31:55.506Z,63.40
2018-11-12T17:34:26.007Z,63.00
2018-11-12T17:39:44.893Z,63.80
2018-11-12T17:42:16.808Z,63.90
2018-11-12T17:44:47.711Z,64.40
2018-11-12T17:47:18.412Z,65.00
2018-11-12T17:49:57.661Z,65.30
2018-11-12T17:52:31.731Z,65.60
2018-11-12T17:55:03.958Z,66.00
2018-11-12T17:57:41.025Z,66.10
2018-11-12T18:00:35.005Z,66.30
2018-11-12T18:03:06.938Z,66.70
2018-11-12T18:05:38.309Z,67.70
2018-11-12T18:08:09.581Z,68.80
2018-11-12T18:10:41.574Z,69.20
2018-11-12T18:13:38.714Z,69.10
2018-11-12T18:16:18.152Z,68.60
2018-11-12T18:18:51.177Z,68.20
2018-11-12T18:21:23.683Z,67.60
2018-11-12T18:23:56.418Z,66.70
2018-11-12T18:26:27.870Z,66.00
2018-11-12T18:28:59.478Z,65.50
2018-11-12T18:31:38.332Z,65.10
2018-11-12T18:34:09.698Z,64.80
2018-11-12T18:36:41.223Z,64.70
2018-11-12T18:39:13.652Z,64.40
2018-11-12T18:41:49.879Z,63.80
2018-11-12T18:44:22.400Z,63.50
2018-11-12T18:46:53.850Z,63.50
2018-11-12T18:49:29.256Z,63.60
2018-11-12T19:06:06.412Z,63.30
2018-11-12T19:08:37.589Z,62.50
2018-11-12T19:11:08.749Z,62.50
2018-11-12T19:13:46.254Z,62.70
2018-11-12T19:16:17.252Z,62.90
2018-11-12T19:18:49.135Z,63.30
2018-11-12T19:21:20.508Z,64.30
2018-11-12T19:23:53.385Z,65.20
2018-11-12T19:26:25.920Z,65.50
2018-11-12T19:28:57.920Z,65.70
2018-11-12T19:31:29.041Z,65.30
2018-11-12T19:34:00.778Z,65.00
2018-11-12T19:36:32.920Z,64.90
2018-11-12T19:39:06.662Z,64.90
2018-11-12T19:41:38.069Z,65.20
2018-11-12T19:44:09.643Z,65.70
2018-11-12T19:46:41.435Z,66.00
2018-11-12T19:49:12.985Z,66.00
2018-11-12T19:51:45.173Z,65.80
2018-11-12T19:54:17.575Z,65.60
2018-11-12T19:56:48.835Z,65.40
2018-11-12T19:59:21.233Z,65.60
2018-11-12T20:01:55.231Z,65.60
2018-11-12T20:04:34.384Z,65.60
2018-11-12T20:07:09.737Z,65.80
2018-11-12T20:10:00.016Z,66.20
2018-11-12T20:12:36.144Z,66.20
2018-11-12T20:15:14.429Z,65.90
2018-11-12T20:17:54.170Z,66.00
2018-11-12T20:20:32.062Z,65.80
2018-11-12T20:23:14.270Z,65.50
2018-11-12T20:25:51.493Z,65.10
2018-11-12T20:28:26.130Z,64.70
2018-11-12T20:30:59.357Z,64.70
2018-11-12T20:33:33.310Z,64.00
2018-11-12T20:36:05.747Z,63.30
2018-11-12T20:38:36.999Z,63.60
2018-11-12T20:41:12.427Z,63.30
2018-11-12T20:43:47.374Z,63.10
2018-11-12T20:46:19.845Z,63.10
2018-11-12T20:48:54.277Z,63.40
2018-11-12T20:51:27.476Z,64.10
2018-11-12T20:53:59.452Z,62.90
2018-11-12T20:56:32.917Z,62.90
2018-11-12T20:59:07.749Z,62.50
2018-11-12T21:01:51.650Z,62.90
2018-11-12T21:04:33.270Z,63.70
2018-11-12T21:07:06.939Z,64.40
2018-11-12T21:09:45.344Z,64.60
2018-11-12T21:12:19.123Z,64.80
2018-11-12T21:14:56.688Z,64.70
2018-11-12T21:17:37.054Z,64.90
2018-11-12T21:20:17.928Z,64.80
2018-11-12T21:22:51.235Z,64.60
2018-11-12T21:25:27.297Z,64.30
2018-11-12T21:27:59.665Z,64.20
2018-11-12T21:30:31.335Z,64.40
2018-11-12T21:33:02.902Z,64.60
2018-11-12T21:35:35.443Z,64.70
2018-11-12T21:38:07.001Z,65.00
2018-11-12T21:40:37.443Z,65.20
2018-11-12T21:43:08.871Z,65.20
2018-11-12T21:45:40.355Z,65.20
2018-11-12T21:48:11.431Z,65.10
2018-11-12T21:50:42.441Z,64.90
2018-11-12T21:53:13.114Z,64.60
2018-11-12T21:55:44.186Z,63.30
2018-11-12T21:58:15.019Z,62.70
2018-11-12T22:00:50.062Z,62.20
2018-11-12T22:03:23.239Z,62.30
2018-11-12T22:05:54.499Z,62.00
2018-11-12T22:08:25.178Z,62.10
2018-11-12T22:10:56.621Z,62.80
2018-11-12T22:13:40.150Z,63.40
2018-11-12T22:16:26.221Z,63.40
2018-11-12T22:19:04.388Z,63.80
2018-11-12T22:22:39.195Z,64.00
2018-11-12T22:25:14.368Z,64.10
2018-11-12T22:27:48.371Z,64.00
2018-11-12T22:30:20.964Z,64.60
2018-11-12T22:32:54.002Z,64.80
2018-11-12T22:35:25.349Z,64.90
2018-11-12T22:37:58.249Z,65.20
2018-11-12T22:40:29.345Z,65.40
2018-11-12T22:43:00.730Z,65.50
2018-11-12T22:45:34.647Z,65.50
2018-11-12T22:48:06.636Z,65.40
2018-11-12T22:50:39.469Z,65.20
2018-11-12T22:53:12.196Z,64.90
2018-11-12T22:55:44.051Z,64.90
2018-11-12T22:58:15.901Z,64.90
2018-11-12T23:00:48.562Z,65.00
2018-11-12T23:03:19.202Z,64.90
2018-11-12T23:05:53.776Z,64.90
2018-11-12T23:08:24.461Z,64.90
2018-11-12T23:10:58.970Z,64.80
2018-11-12T23:13:35.258Z,64.80
2018-11-12T23:16:07.287Z,64.70
2018-11-12T23:18:38.502Z,64.70
2018-11-12T23:21:10.675Z,64.90
2018-11-12T23:23:41.254Z,64.80
2018-11-12T23:26:12.066Z,64.50
2018-11-12T23:28:44.090Z,64.60
2018-11-12T23:31:14.857Z,64.60
2018-11-12T23:33:45.302Z,64.70
2018-11-12T23:36:15.866Z,64.50
2018-11-12T23:38:47.128Z,64.40
2018-11-12T23:41:18.517Z,64.10
2018-11-12T23:43:51.107Z,63.80
2018-11-12T23:46:23.323Z,63.90
2018-11-12T23:48:57.928Z,63.60
2018-11-12T23:51:33.198Z,63.80
2018-11-12T23:54:04.416Z,64.00
2018-11-12T23:56:35.010Z,64.10
2018-11-12T23:59:19.821Z,64.30
